Terminal Aerodrome Forecast
Issued by NWS

Home | Current Version | Previous Version | Text Only | Print | Product List | Glossary On
Versions: 1 2 3 4 5 6 7 8 9 10 11 12 13 14 15 16 17 18
000
FTUS45 KTFX 232320
TAFGTF
TAF
KGTF 232320Z 2400/2424 27010G18KT P6SM SKC
     FM240100 21011KT P6SM SKC
     FM240900 22011G20KT P6SM SKC
     FM241700 23018G26KT P6SM SKC=

USA.gov is the U.S. government's official web portal to all federal, state and local government web resources and services.